createdAt,value
2018-05-16T00:01:13.076Z,21.72
2018-05-16T00:03:41.545Z,21.69
2018-05-16T00:06:10.048Z,21.53
2018-05-16T00:08:38.569Z,21.50
2018-05-16T00:11:07.065Z,21.54
2018-05-16T00:13:35.582Z,21.56
2018-05-16T00:16:04.093Z,21.55
2018-05-16T00:18:32.579Z,21.46
2018-05-16T00:21:01.089Z,21.49
2018-05-16T00:23:29.560Z,21.32
2018-05-16T00:25:58.078Z,21.36
2018-05-16T00:28:26.566Z,21.29
2018-05-16T00:30:55.085Z,21.29
2018-05-16T00:33:23.564Z,21.38
2018-05-16T00:35:52.037Z,21.26
2018-05-16T00:38:20.544Z,21.40
2018-05-16T00:40:49.017Z,21.34
2018-05-16T00:43:17.517Z,21.39
2018-05-16T00:45:46.016Z,21.37
2018-05-16T00:48:14.496Z,21.24
2018-05-16T00:50:54.697Z,21.30
2018-05-16T00:53:23.216Z,21.13
2018-05-16T00:55:51.688Z,21.08
2018-05-16T00:58:20.195Z,21.21
2018-05-16T01:00:48.728Z,21.04
2018-05-16T01:03:17.262Z,20.94
2018-05-16T01:05:45.734Z,21.09
2018-05-16T01:08:14.242Z,21.14
2018-05-16T01:10:42.756Z,21.09
2018-05-16T01:13:11.244Z,21.08
2018-05-16T01:15:39.760Z,21.11
2018-05-16T01:18:08.276Z,21.16
2018-05-16T01:20:36.884Z,21.14
2018-05-16T01:23:05.416Z,21.15
2018-05-16T01:25:33.948Z,21.13
2018-05-16T01:28:02.448Z,21.19
2018-05-16T01:30:30.961Z,21.23
2018-05-16T01:32:59.440Z,21.10
2018-05-16T01:35:27.944Z,21.18
2018-05-16T01:37:56.452Z,21.12
2018-05-16T01:40:24.973Z,21.15
2018-05-16T01:42:53.532Z,21.17
2018-05-16T01:45:21.997Z,21.15
2018-05-16T01:47:50.517Z,21.17
2018-05-16T01:50:19.015Z,21.12
2018-05-16T01:52:47.495Z,21.04
2018-05-16T01:55:15.997Z,21.11
2018-05-16T01:57:44.505Z,21.15
2018-05-16T02:00:13.013Z,21.09
2018-05-16T02:02:41.542Z,21.04
2018-05-16T02:05:10.058Z,21.01
2018-05-16T02:07:38.538Z,20.92
2018-05-16T02:10:07.048Z,20.89
2018-05-16T02:12:35.536Z,20.79
2018-05-16T02:15:04.159Z,20.86
2018-05-16T02:17:32.637Z,20.88
2018-05-16T02:20:01.130Z,20.89
2018-05-16T02:22:29.661Z,20.96
2018-05-16T02:24:58.137Z,20.95
2018-05-16T02:27:26.616Z,20.87
2018-05-16T02:29:55.188Z,20.97
2018-05-16T02:32:23.715Z,20.89
2018-05-16T02:34:52.235Z,20.92
2018-05-16T02:37:20.815Z,20.90
2018-05-16T02:39:49.273Z,20.85
2018-05-16T02:42:17.765Z,20.85
2018-05-16T02:44:46.381Z,20.93
2018-05-16T02:47:14.817Z,20.95
2018-05-16T02:49:43.340Z,20.91
2018-05-16T02:52:11.817Z,20.94
2018-05-16T02:54:40.333Z,20.86
2018-05-16T02:57:08.833Z,20.77
2018-05-16T02:59:37.401Z,20.83
2018-05-16T03:02:05.882Z,20.82
2018-05-16T03:04:34.337Z,20.71
2018-05-16T03:07:02.860Z,20.63
2018-05-16T03:09:31.332Z,20.62
2018-05-16T03:11:59.845Z,20.70
2018-05-16T03:14:28.339Z,20.71
2018-05-16T03:16:56.856Z,20.73
2018-05-16T03:19:25.374Z,20.61
2018-05-16T03:21:53.896Z,20.50
2018-05-16T03:24:22.413Z,20.49
2018-05-16T03:26:50.929Z,20.55
2018-05-16T03:29:19.405Z,20.52
2018-05-16T03:31:47.900Z,20.56
2018-05-16T03:34:16.412Z,20.54
2018-05-16T03:36:44.911Z,20.52
2018-05-16T03:39:13.443Z,20.38
2018-05-16T03:41:41.933Z,20.32
2018-05-16T03:44:10.457Z,20.40
2018-05-16T03:46:38.940Z,20.46
2018-05-16T03:49:07.519Z,20.45
2018-05-16T03:51:35.992Z,20.47
2018-05-16T03:54:04.492Z,20.37
2018-05-16T03:56:33.016Z,20.46
2018-05-16T03:59:13.158Z,20.53
2018-05-16T04:01:53.181Z,20.58
2018-05-16T04:04:21.642Z,20.48
2018-05-16T04:06:50.164Z,20.60
2018-05-16T04:09:18.687Z,20.53
2018-05-16T04:11:47.206Z,20.52
2018-05-16T04:14:15.686Z,20.50
2018-05-16T04:16:44.213Z,20.52
2018-05-16T04:19:12.692Z,20.48
2018-05-16T04:21:41.250Z,20.53
2018-05-16T04:24:09.752Z,20.58
2018-05-16T04:26:38.276Z,20.55
2018-05-16T04:29:06.762Z,20.52
2018-05-16T04:31:35.276Z,20.53
2018-05-16T04:34:03.800Z,20.59
2018-05-16T04:36:32.292Z,20.60
2018-05-16T04:39:00.872Z,20.67
2018-05-16T04:41:29.397Z,20.73
2018-05-16T04:43:57.881Z,20.68
2018-05-16T04:46:26.369Z,20.56
2018-05-16T04:48:54.884Z,20.93
2018-05-16T04:51:23.390Z,21.24
2018-05-16T04:53:51.868Z,21.52
2018-05-16T04:56:20.384Z,21.87
2018-05-16T04:58:48.919Z,22.12
2018-05-16T05:01:17.441Z,22.39
2018-05-16T05:03:45.973Z,22.50
2018-05-16T05:06:15.146Z,22.93
2018-05-16T05:08:43.630Z,22.98
2018-05-16T05:11:12.153Z,23.49
2018-05-16T05:13:40.641Z,23.81
2018-05-16T05:16:09.179Z,24.02
2018-05-16T05:18:37.685Z,24.32
2018-05-16T05:21:06.197Z,24.57
2018-05-16T05:23:34.716Z,24.64
2018-05-16T05:26:03.208Z,24.93
2018-05-16T05:28:31.785Z,25.10
2018-05-16T05:31:00.278Z,25.42
2018-05-16T05:33:29.753Z,25.30
2018-05-16T05:35:58.240Z,25.37
2018-05-16T05:38:26.764Z,25.28
2018-05-16T05:40:55.277Z,25.19
2018-05-16T05:43:23.968Z,25.20
2018-05-16T05:45:52.409Z,25.31
2018-05-16T05:48:20.899Z,25.29
2018-05-16T05:50:49.455Z,25.51
2018-05-16T05:53:18.029Z,25.60
2018-05-16T05:55:46.570Z,25.40
2018-05-16T05:58:15.092Z,25.77
2018-05-16T06:00:43.591Z,25.90
2018-05-16T06:03:12.136Z,25.92
2018-05-16T06:05:40.709Z,26.10
2018-05-16T06:08:09.268Z,25.82
2018-05-16T06:10:37.774Z,26.36
2018-05-16T06:13:06.285Z,26.38
2018-05-16T06:15:34.771Z,26.49
2018-05-16T06:18:03.350Z,26.74
2018-05-16T06:20:31.825Z,26.86
2018-05-16T06:23:00.330Z,27.04
2018-05-16T06:25:28.856Z,27.06
2018-05-16T06:27:57.275Z,27.12
2018-05-16T06:30:25.716Z,27.24
2018-05-16T06:32:54.134Z,27.34
2018-05-16T06:35:22.860Z,27.56
2018-05-16T06:37:51.307Z,27.80
2018-05-16T06:40:19.692Z,27.69
2018-05-16T06:42:48.123Z,27.53
2018-05-16T06:45:16.547Z,27.47
2018-05-16T06:47:45.008Z,27.36
2018-05-16T06:50:13.519Z,27.63
2018-05-16T06:52:41.928Z,27.59
2018-05-16T06:55:10.372Z,27.61
2018-05-16T06:57:38.828Z,27.63
2018-05-16T07:00:07.244Z,27.51
2018-05-16T07:02:35.683Z,27.35
2018-05-16T07:05:04.185Z,27.52
2018-05-16T07:07:32.591Z,27.52
2018-05-16T07:10:01.070Z,27.34
2018-05-16T07:12:29.479Z,27.63
2018-05-16T07:14:57.942Z,27.72
2018-05-16T07:17:26.417Z,28.01
2018-05-16T07:19:55.180Z,28.26
2018-05-16T07:22:23.670Z,28.26
2018-05-16T07:24:52.109Z,28.37
2018-05-16T07:27:20.535Z,28.43
2018-05-16T07:29:48.962Z,28.64
2018-05-16T07:32:17.460Z,28.69
2018-05-16T07:34:45.916Z,28.73
2018-05-16T07:37:14.511Z,28.84
2018-05-16T07:39:42.963Z,28.99
2018-05-16T07:42:11.396Z,28.87
2018-05-16T07:44:39.867Z,29.04
2018-05-16T07:47:08.358Z,29.15
2018-05-16T07:49:36.768Z,28.90
2018-05-16T07:52:05.211Z,28.91
2018-05-16T07:54:33.672Z,28.88
2018-05-16T07:57:02.083Z,28.85
2018-05-16T07:59:30.624Z,28.54
2018-05-16T08:01:59.036Z,28.71
2018-05-16T08:04:27.491Z,28.45
2018-05-16T08:06:55.948Z,28.61
2018-05-16T08:09:24.354Z,28.28
2018-05-16T08:11:52.793Z,28.09
2018-05-16T08:14:21.200Z,28.16
2018-05-16T08:16:49.657Z,28.16
2018-05-16T08:19:18.046Z,28.21
2018-05-16T08:21:46.471Z,28.36
2018-05-16T08:24:14.946Z,28.50
2018-05-16T08:26:43.409Z,28.43
2018-05-16T08:29:11.868Z,28.56
2018-05-16T08:31:40.279Z,28.72
2018-05-16T08:34:08.692Z,28.68
2018-05-16T08:36:37.140Z,28.76
2018-05-16T08:39:05.632Z,28.67
2018-05-16T08:41:34.100Z,28.82
2018-05-16T08:44:02.532Z,28.82
2018-05-16T08:46:31.036Z,28.91
2018-05-16T08:48:59.475Z,28.92
2018-05-16T08:51:27.923Z,29.00
2018-05-16T08:53:56.371Z,29.05
2018-05-16T08:56:24.807Z,29.20
2018-05-16T08:58:53.248Z,29.17
2018-05-16T09:01:21.708Z,29.32
2018-05-16T09:03:50.163Z,29.38
2018-05-16T09:06:18.636Z,29.51
2018-05-16T09:08:47.141Z,29.65
2018-05-16T09:11:15.665Z,29.72
2018-05-16T09:13:44.120Z,29.88
2018-05-16T09:16:12.588Z,30.08
2018-05-16T09:18:41.019Z,30.16
2018-05-16T09:21:09.467Z,30.23
2018-05-16T09:23:37.917Z,30.06
2018-05-16T09:26:06.331Z,30.03
2018-05-16T09:28:34.777Z,29.93
2018-05-16T09:31:03.231Z,30.38
2018-05-16T09:33:31.677Z,30.31
2018-05-16T09:36:00.092Z,30.26
2018-05-16T09:38:28.536Z,30.47
2018-05-16T09:40:56.941Z,30.22
2018-05-16T09:43:25.444Z,30.38
2018-05-16T09:45:53.969Z,30.34
2018-05-16T09:48:22.518Z,30.39
2018-05-16T09:50:51.000Z,30.15
2018-05-16T09:53:19.663Z,30.11
2018-05-16T09:55:48.165Z,29.99
2018-05-16T09:58:16.640Z,29.73
2018-05-16T10:00:45.201Z,30.02
2018-05-16T10:03:13.676Z,29.88
2018-05-16T10:05:42.173Z,29.53
2018-05-16T10:08:10.645Z,29.83
2018-05-16T10:10:39.144Z,29.85
2018-05-16T10:13:07.558Z,29.95
2018-05-16T10:15:36.000Z,30.11
2018-05-16T10:18:04.429Z,29.91
2018-05-16T10:20:32.880Z,29.80
2018-05-16T10:23:01.324Z,29.83
2018-05-16T10:25:29.775Z,29.63
2018-05-16T10:27:58.195Z,29.63
2018-05-16T10:30:26.609Z,29.65
2018-05-16T10:32:55.073Z,29.71
2018-05-16T10:35:23.522Z,29.87
2018-05-16T10:37:51.927Z,30.13
2018-05-16T10:40:20.380Z,30.25
2018-05-16T10:42:48.847Z,30.24
2018-05-16T10:45:17.287Z,30.43
2018-05-16T10:47:45.683Z,30.34
2018-05-16T10:50:14.141Z,30.50
2018-05-16T10:52:42.547Z,30.55
2018-05-16T10:55:10.999Z,30.64
2018-05-16T10:57:39.404Z,30.78
2018-05-16T11:00:07.859Z,30.75
2018-05-16T11:02:36.265Z,30.47
2018-05-16T11:05:04.720Z,30.31
2018-05-16T11:07:33.153Z,30.41
2018-05-16T11:10:01.564Z,30.27
2018-05-16T11:12:29.981Z,30.51
2018-05-16T11:14:58.472Z,30.49
2018-05-16T11:17:26.895Z,30.43
2018-05-16T11:19:55.351Z,30.49
2018-05-16T11:22:23.850Z,30.43
2018-05-16T11:24:52.364Z,30.81
2018-05-16T11:27:21.760Z,30.92
2018-05-16T11:29:50.159Z,31.00
2018-05-16T11:32:18.596Z,31.02
2018-05-16T11:34:47.054Z,31.01
2018-05-16T11:37:15.590Z,30.92
2018-05-16T11:39:44.057Z,30.88
2018-05-16T11:42:12.564Z,30.88
2018-05-16T11:44:41.032Z,30.94
2018-05-16T11:47:09.657Z,30.93
2018-05-16T11:49:38.174Z,30.83
2018-05-16T11:52:06.640Z,30.86
2018-05-16T11:54:35.169Z,30.24
2018-05-16T11:57:03.748Z,30.80
2018-05-16T11:59:32.216Z,30.76
2018-05-16T12:02:00.744Z,30.87
2018-05-16T12:04:29.345Z,30.88
2018-05-16T12:06:57.959Z,30.77
2018-05-16T12:09:26.490Z,30.92
2018-05-16T12:11:54.961Z,30.84
2018-05-16T12:14:23.420Z,30.83
2018-05-16T12:16:51.988Z,30.84
2018-05-16T12:19:20.505Z,30.99
2018-05-16T12:21:49.038Z,31.17
2018-05-16T12:24:17.485Z,31.22
2018-05-16T12:26:45.989Z,31.36
2018-05-16T12:29:14.517Z,31.38
2018-05-16T12:31:43.074Z,31.42
2018-05-16T12:34:11.597Z,31.51
2018-05-16T12:36:40.195Z,31.55
2018-05-16T12:39:08.629Z,31.48
2018-05-16T12:41:37.171Z,31.43
2018-05-16T12:44:05.719Z,31.41
2018-05-16T12:46:34.205Z,31.35
2018-05-16T12:49:02.740Z,31.44
2018-05-16T12:51:31.239Z,31.60
2018-05-16T12:53:59.758Z,31.42
2018-05-16T12:56:28.227Z,31.26
2018-05-16T12:58:56.737Z,31.39
2018-05-16T13:01:25.263Z,31.43
2018-05-16T13:03:54.843Z,31.51
2018-05-16T13:06:23.335Z,31.44
2018-05-16T13:08:51.813Z,31.61
2018-05-16T13:11:20.321Z,31.67
2018-05-16T13:13:49.493Z,31.64
2018-05-16T13:16:17.982Z,31.70
2018-05-16T13:18:46.473Z,31.70
2018-05-16T13:21:14.980Z,31.58
2018-05-16T13:23:43.469Z,31.58
2018-05-16T13:26:11.992Z,31.62
2018-05-16T13:28:40.692Z,31.68
2018-05-16T13:31:09.348Z,31.27
2018-05-16T13:33:37.878Z,31.29
2018-05-16T13:36:06.388Z,31.47
2018-05-16T13:38:34.904Z,31.61
2018-05-16T13:41:03.443Z,31.73
2018-05-16T13:43:31.964Z,31.68
2018-05-16T13:46:00.446Z,31.67
2018-05-16T13:48:28.972Z,31.72
2018-05-16T13:50:57.497Z,31.79
2018-05-16T13:53:26.078Z,31.84
2018-05-16T13:55:54.512Z,31.79
2018-05-16T13:58:22.985Z,31.86
2018-05-16T14:00:51.728Z,31.82
2018-05-16T14:03:20.249Z,31.87
2018-05-16T14:05:48.724Z,31.79
2018-05-16T14:08:17.253Z,31.73
2018-05-16T14:10:45.764Z,31.66
2018-05-16T14:13:14.376Z,31.73
2018-05-16T14:15:42.956Z,31.88
2018-05-16T14:18:11.480Z,31.94
2018-05-16T14:20:40.173Z,31.74
2018-05-16T14:23:08.686Z,31.85
2018-05-16T14:25:37.203Z,31.87
2018-05-16T14:28:05.732Z,31.96
2018-05-16T14:30:34.209Z,31.84
2018-05-16T14:33:02.661Z,31.49
2018-05-16T14:35:31.174Z,31.61
2018-05-16T14:37:59.713Z,31.71
2018-05-16T14:40:28.260Z,31.56
2018-05-16T14:42:56.833Z,31.55
2018-05-16T14:45:25.292Z,31.69
2018-05-16T14:47:53.805Z,31.70
2018-05-16T14:50:22.346Z,31.69
2018-05-16T14:52:50.876Z,31.49
2018-05-16T14:55:19.355Z,31.54
2018-05-16T14:57:47.880Z,31.50
2018-05-16T15:00:16.364Z,31.50
2018-05-16T15:02:44.888Z,31.44
2018-05-16T15:05:13.364Z,31.43
2018-05-16T15:07:41.932Z,31.33
2018-05-16T15:10:10.430Z,31.11
2018-05-16T15:12:38.927Z,31.17
2018-05-16T15:15:07.435Z,31.17
2018-05-16T15:17:35.909Z,31.14
2018-05-16T15:20:04.444Z,31.15
2018-05-16T15:22:32.942Z,31.17
2018-05-16T15:25:01.481Z,31.17
2018-05-16T15:27:30.144Z,31.14
2018-05-16T15:29:58.621Z,31.10
2018-05-16T15:32:27.093Z,31.10
2018-05-16T15:34:55.611Z,31.03
2018-05-16T15:37:24.186Z,31.03
2018-05-16T15:39:52.712Z,30.95
2018-05-16T15:42:21.210Z,30.91
2018-05-16T15:44:49.717Z,30.88
2018-05-16T15:47:18.232Z,30.80
2018-05-16T15:49:46.795Z,30.67
2018-05-16T15:52:15.288Z,30.69
2018-05-16T15:54:43.808Z,30.66
2018-05-16T15:57:12.325Z,30.63
2018-05-16T15:59:40.852Z,30.57
2018-05-16T16:02:09.384Z,30.55
2018-05-16T16:04:37.905Z,30.52
2018-05-16T16:07:06.412Z,30.50
2018-05-16T16:09:35.617Z,30.55
2018-05-16T16:12:05.026Z,30.46
2018-05-16T16:14:33.557Z,30.41
2018-05-16T16:17:02.067Z,30.35
2018-05-16T16:19:30.543Z,30.31
2018-05-16T16:21:59.065Z,30.22
2018-05-16T16:24:27.555Z,30.22
2018-05-16T16:26:56.071Z,30.19
2018-05-16T16:29:24.589Z,30.15
2018-05-16T16:31:53.101Z,30.14
2018-05-16T16:34:21.620Z,30.14
2018-05-16T16:36:50.108Z,30.07
2018-05-16T16:39:18.620Z,30.08
2018-05-16T16:41:47.101Z,30.02
2018-05-16T16:44:15.608Z,29.98
2018-05-16T16:46:44.202Z,29.91
2018-05-16T16:49:12.757Z,29.81
2018-05-16T16:51:41.277Z,29.67
2018-05-16T16:54:09.816Z,29.59
2018-05-16T16:56:38.300Z,29.47
2018-05-16T16:59:06.805Z,29.30
2018-05-16T17:01:35.327Z,29.10
2018-05-16T17:04:03.840Z,29.02
2018-05-16T17:06:32.359Z,28.87
2018-05-16T17:09:00.923Z,28.70
2018-05-16T17:11:29.424Z,28.54
2018-05-16T17:13:57.957Z,28.21
2018-05-16T17:16:26.447Z,27.99
2018-05-16T17:18:54.901Z,27.89
2018-05-16T17:21:23.492Z,27.88
2018-05-16T17:23:51.973Z,27.73
2018-05-16T17:26:20.456Z,27.56
2018-05-16T17:28:49.632Z,27.43
2018-05-16T17:31:18.161Z,27.35
2018-05-16T17:33:46.641Z,27.35
2018-05-16T17:36:15.155Z,27.21
2018-05-16T17:38:43.643Z,27.19
2018-05-16T17:41:12.184Z,27.03
2018-05-16T17:43:40.701Z,26.90
2018-05-16T17:46:09.265Z,26.95
2018-05-16T17:48:37.745Z,26.85
2018-05-16T17:51:06.221Z,26.78
2018-05-16T17:53:34.737Z,26.65
2018-05-16T17:56:03.301Z,26.62
2018-05-16T17:58:31.821Z,26.58
2018-05-16T18:01:00.430Z,26.46
2018-05-16T18:03:28.853Z,26.21
2018-05-16T18:05:57.364Z,26.26
2018-05-16T18:08:25.828Z,26.16
2018-05-16T18:10:54.336Z,26.08
2018-05-16T18:16:42.137Z,25.97
2018-05-16T18:19:10.716Z,25.92
2018-05-16T18:21:39.232Z,25.77
2018-05-16T18:24:07.725Z,25.75
2018-05-16T18:26:36.245Z,25.64
2018-05-16T18:29:04.760Z,25.55
2018-05-16T18:31:33.234Z,25.51
2018-05-16T18:34:01.706Z,25.45
2018-05-16T18:36:30.208Z,25.38
2018-05-16T18:38:58.664Z,25.34
2018-05-16T18:41:27.177Z,25.27
2018-05-16T18:43:55.725Z,25.25
2018-05-16T18:46:24.193Z,25.07
2018-05-16T18:48:52.702Z,24.99
2018-05-16T18:51:21.192Z,25.01
2018-05-16T18:53:49.713Z,24.96
2018-05-16T18:56:18.202Z,24.94
2018-05-16T18:58:46.705Z,24.91
2018-05-16T19:01:15.234Z,24.87
2018-05-16T19:03:43.748Z,24.88
2018-05-16T19:06:12.270Z,24.81
2018-05-16T19:08:40.844Z,24.77
2018-05-16T19:11:09.283Z,24.76
2018-05-16T19:13:37.783Z,24.74
2018-05-16T19:16:06.279Z,24.72
2018-05-16T19:18:34.779Z,24.69
2018-05-16T19:21:03.303Z,24.53
2018-05-16T19:23:31.832Z,24.64
2018-05-16T19:26:00.353Z,24.61
2018-05-16T19:28:28.821Z,24.59
2018-05-16T19:30:57.324Z,24.57
2018-05-16T19:33:25.817Z,24.54
2018-05-16T19:35:54.348Z,24.55
2018-05-16T19:38:22.909Z,24.65
2018-05-16T19:40:51.412Z,24.72
2018-05-16T19:43:19.914Z,24.68
2018-05-16T19:45:48.412Z,24.84
2018-05-16T19:48:16.901Z,24.88
2018-05-16T19:50:45.420Z,24.84
2018-05-16T19:53:13.937Z,24.85
2018-05-16T19:55:42.406Z,24.92
2018-05-16T19:58:10.879Z,24.97
2018-05-16T20:00:39.391Z,24.89
2018-05-16T20:03:07.905Z,24.88
2018-05-16T20:05:36.368Z,24.94
2018-05-16T20:08:04.975Z,24.91
2018-05-16T20:10:33.476Z,24.93
2018-05-16T20:13:01.996Z,24.90
2018-05-16T20:15:30.560Z,24.85
2018-05-16T20:17:59.038Z,24.86
2018-05-16T20:20:27.548Z,24.86
2018-05-16T20:22:56.017Z,24.83
2018-05-16T20:25:24.527Z,24.80
2018-05-16T20:27:53.016Z,24.84
2018-05-16T20:30:21.517Z,24.93
2018-05-16T20:32:50.032Z,24.86
2018-05-16T20:35:18.551Z,24.82
2018-05-16T20:37:47.020Z,24.62
2018-05-16T20:40:15.534Z,24.61
2018-05-16T20:42:44.031Z,24.63
2018-05-16T20:45:12.639Z,24.69
2018-05-16T20:47:41.065Z,24.66
2018-05-16T20:50:09.541Z,24.72
2018-05-16T20:52:38.049Z,24.68
2018-05-16T20:55:06.515Z,24.64
2018-05-16T20:57:35.028Z,24.61
2018-05-16T21:00:03.609Z,24.56
2018-05-16T21:02:32.137Z,24.50
2018-05-16T21:05:00.612Z,24.47
2018-05-16T21:07:29.099Z,24.35
2018-05-16T21:09:57.605Z,24.29
2018-05-16T21:12:26.104Z,24.25
2018-05-16T21:14:54.609Z,24.22
2018-05-16T21:17:23.120Z,23.95
2018-05-16T21:19:51.634Z,23.86
2018-05-16T21:22:20.120Z,23.67
2018-05-16T21:24:48.625Z,23.58
2018-05-16T21:27:17.102Z,23.68
2018-05-16T21:29:45.605Z,23.67
2018-05-16T21:32:14.109Z,23.65
2018-05-16T21:34:42.621Z,23.58
2018-05-16T21:37:11.110Z,23.60
2018-05-16T21:39:39.618Z,23.64
2018-05-16T21:42:08.084Z,23.66
2018-05-16T21:44:36.611Z,23.57
2018-05-16T21:47:05.130Z,23.63
2018-05-16T21:49:33.593Z,23.53
2018-05-16T21:52:02.104Z,23.52
2018-05-16T21:54:30.573Z,23.45
2018-05-16T21:56:59.048Z,23.43
2018-05-16T21:59:27.557Z,23.25
2018-05-16T22:01:56.036Z,23.18
2018-05-16T22:04:24.584Z,23.14
2018-05-16T22:06:53.007Z,23.07
2018-05-16T22:09:21.461Z,22.96
2018-05-16T22:11:49.887Z,22.97
2018-05-16T22:14:18.312Z,22.94
2018-05-16T22:16:46.723Z,22.96
2018-05-16T22:19:15.204Z,22.92
2018-05-16T22:21:43.621Z,22.92
2018-05-16T22:24:12.036Z,22.88
2018-05-16T22:26:40.492Z,22.65
2018-05-16T22:29:08.902Z,22.64
2018-05-16T22:31:42.871Z,22.67
2018-05-16T22:34:16.768Z,22.65
2018-05-16T22:36:50.722Z,22.63
2018-05-16T22:39:24.782Z,22.61
2018-05-16T22:41:58.611Z,22.51
2018-05-16T22:44:33.520Z,22.50
2018-05-16T22:47:02.011Z,22.49
2018-05-16T22:49:30.468Z,22.48
2018-05-16T22:51:58.885Z,22.38
2018-05-16T22:54:27.414Z,22.32
2018-05-16T22:56:55.827Z,22.30
2018-05-16T22:59:24.297Z,22.27
2018-05-16T23:01:52.735Z,22.25
2018-05-16T23:04:21.140Z,22.21
2018-05-16T23:06:49.592Z,22.20
2018-05-16T23:09:17.995Z,22.19
2018-05-16T23:11:46.439Z,22.17
2018-05-16T23:14:14.950Z,22.13
2018-05-16T23:16:43.453Z,22.07
2018-05-16T23:19:11.925Z,22.03
2018-05-16T23:21:40.464Z,21.88
2018-05-16T23:24:08.943Z,21.94
2018-05-16T23:26:37.460Z,21.93
2018-05-16T23:29:05.967Z,21.90
2018-05-16T23:31:34.468Z,21.83
2018-05-16T23:34:02.945Z,21.83
2018-05-16T23:36:31.453Z,21.86
2018-05-16T23:38:59.932Z,21.83
2018-05-16T23:41:28.435Z,21.77
2018-05-16T23:43:56.914Z,21.83
2018-05-16T23:46:25.443Z,21.80
2018-05-16T23:48:53.912Z,21.64
2018-05-16T23:51:22.388Z,21.79
2018-05-16T23:53:50.900Z,21.80
2018-05-16T23:56:19.372Z,21.79
2018-05-16T23:58:47.896Z,21.77
